Walls, Mississippi
Current Conditions -  °F | °C
As of 7:54 AM on Monday 22 Dec 2014 (Local Time) from KMEM Reporting Station
Overcast Overcast  
Wind Chill: 51°   Ceiling: 500
Heat Index: 51°   Visibility: 1mi
Dew Point: 48°   Wind: 9mph
Humidity: 89%   Direction: 170°S
Pressure: 29.83"   Gusts: NA
Location:  34.94°N, 90.09°W
Report Text: KMEM 221354Z 17008KT 1SM OVC005 11/09 A2983 RMK AO2 SFC VIS 7 SLP101 T01060089 $
Loading
Personal Weather Stations






























Interactive Weather Map New forecast layout! Learn more

10-Day Weather Forecast

Advertisements
Track Severe Weather on mobile